sensor_id;sensor_type;location;lat;lon;timestamp;temperature;humidity
6355;DHT22;3210;48.708;9.030;2022-10-17T00:02:14;12.00;99.90
6355;DHT22;3210;48.708;9.030;2022-10-17T00:04:43;11.90;99.90
6355;DHT22;3210;48.708;9.030;2022-10-17T00:07:09;11.90;99.90
6355;DHT22;3210;48.708;9.030;2022-10-17T00:09:36;11.90;99.90
6355;DHT22;3210;48.708;9.030;2022-10-17T00:12:03;11.90;99.90
6355;DHT22;3210;48.708;9.030;2022-10-17T00:14:30;11.80;99.90
6355;DHT22;3210;48.708;9.030;2022-10-17T00:16:57;11.80;99.90
6355;DHT22;3210;48.708;9.030;2022-10-17T00:19:24;11.80;99.90
6355;DHT22;3210;48.708;9.030;2022-10-17T00:21:52;11.80;99.90
6355;DHT22;3210;48.708;9.030;2022-10-17T00:24:19;11.80;99.90
6355;DHT22;3210;48.708;9.030;2022-10-17T00:26:46;11.70;99.90
6355;DHT22;3210;48.708;9.030;2022-10-17T00:29:13;11.70;99.90
6355;DHT22;3210;48.708;9.030;2022-10-17T00:31:39;11.70;99.90
6355;DHT22;3210;48.708;9.030;2022-10-17T00:34:06;11.70;99.90
6355;DHT22;3210;48.708;9.030;2022-10-17T00:36:33;11.60;99.90
6355;DHT22;3210;48.708;9.030;2022-10-17T00:39:01;11.70;99.90
6355;DHT22;3210;48.708;9.030;2022-10-17T00:41:31;11.70;99.90
6355;DHT22;3210;48.708;9.030;2022-10-17T00:44:00;11.70;99.90
6355;DHT22;3210;48.708;9.030;2022-10-17T00:46:28;11.60;99.90
6355;DHT22;3210;48.708;9.030;2022-10-17T00:48:56;11.50;99.90
6355;DHT22;3210;48.708;9.030;2022-10-17T00:51:27;11.50;99.90
6355;DHT22;3210;48.708;9.030;2022-10-17T00:53:58;11.50;99.90
6355;DHT22;3210;48.708;9.030;2022-10-17T00:56:26;11.50;99.90
6355;DHT22;3210;48.708;9.030;2022-10-17T00:58:54;11.50;99.90
6355;DHT22;3210;48.708;9.030;2022-10-17T01:01:21;11.50;99.90
6355;DHT22;3210;48.708;9.030;2022-10-17T01:03:48;11.40;99.90
6355;DHT22;3210;48.708;9.030;2022-10-17T01:06:15;11.40;99.90
6355;DHT22;3210;48.708;9.030;2022-10-17T01:08:42;11.40;99.90
6355;DHT22;3210;48.708;9.030;2022-10-17T01:11:20;11.40;99.90
6355;DHT22;3210;48.708;9.030;2022-10-17T01:13:52;11.50;99.90
6355;DHT22;3210;48.708;9.030;2022-10-17T01:16:30;11.40;99.90
6355;DHT22;3210;48.708;9.030;2022-10-17T01:19:07;11.40;99.90
6355;DHT22;3210;48.708;9.030;2022-10-17T01:21:45;11.40;99.90
6355;DHT22;3210;48.708;9.030;2022-10-17T01:24:47;11.30;99.90
6355;DHT22;3210;48.708;9.030;2022-10-17T01:27:55;11.20;99.90
6355;DHT22;3210;48.708;9.030;2022-10-17T01:33:24;11.20;99.90
6355;DHT22;3210;48.708;9.030;2022-10-17T01:35:57;11.10;99.90
6355;DHT22;3210;48.708;9.030;2022-10-17T01:38:30;11.10;99.90
6355;DHT22;3210;48.708;9.030;2022-10-17T01:41:01;11.10;99.90
6355;DHT22;3210;48.708;9.030;2022-10-17T01:43:32;11.10;99.90
6355;DHT22;3210;48.708;9.030;2022-10-17T01:46:02;11.10;99.90
6355;DHT22;3210;48.708;9.030;2022-10-17T01:48:34;11.30;99.90
6355;DHT22;3210;48.708;9.030;2022-10-17T01:51:06;11.10;99.90
6355;DHT22;3210;48.708;9.030;2022-10-17T01:53:38;11.10;99.90
6355;DHT22;3210;48.708;9.030;2022-10-17T01:56:07;11.10;99.90
6355;DHT22;3210;48.708;9.030;2022-10-17T01:58:38;11.00;99.90
6355;DHT22;3210;48.708;9.030;2022-10-17T02:01:06;11.10;99.90
6355;DHT22;3210;48.708;9.030;2022-10-17T02:03:37;11.00;99.90
6355;DHT22;3210;48.708;9.030;2022-10-17T02:06:05;11.00;99.90
6355;DHT22;3210;48.708;9.030;2022-10-17T02:08:40;11.00;99.90
6355;DHT22;3210;48.708;9.030;2022-10-17T02:11:11;11.00;99.90
6355;DHT22;3210;48.708;9.030;2022-10-17T02:13:47;10.90;99.90
6355;DHT22;3210;48.708;9.030;2022-10-17T02:16:26;11.00;99.90
6355;DHT22;3210;48.708;9.030;2022-10-17T02:19:20;11.00;99.90
6355;DHT22;3210;48.708;9.030;2022-10-17T02:21:56;11.00;99.90
6355;DHT22;3210;48.708;9.030;2022-10-17T02:24:29;10.90;99.90
6355;DHT22;3210;48.708;9.030;2022-10-17T02:27:05;11.00;99.90
6355;DHT22;3210;48.708;9.030;2022-10-17T02:29:38;11.10;99.90
6355;DHT22;3210;48.708;9.030;2022-10-17T02:32:08;10.90;99.90
6355;DHT22;3210;48.708;9.030;2022-10-17T02:34:41;10.90;99.90
6355;DHT22;3210;48.708;9.030;2022-10-17T02:37:10;10.80;99.90
6355;DHT22;3210;48.708;9.030;2022-10-17T02:39:39;10.80;99.90
6355;DHT22;3210;48.708;9.030;2022-10-17T02:42:10;10.80;99.90
6355;DHT22;3210;48.708;9.030;2022-10-17T02:44:39;10.70;99.90
6355;DHT22;3210;48.708;9.030;2022-10-17T02:47:11;10.60;99.90
6355;DHT22;3210;48.708;9.030;2022-10-17T02:49:44;10.60;99.90
6355;DHT22;3210;48.708;9.030;2022-10-17T02:52:20;10.50;99.90
6355;DHT22;3210;48.708;9.030;2022-10-17T02:54:52;10.50;99.90
6355;DHT22;3210;48.708;9.030;2022-10-17T02:57:25;10.50;99.90
6355;DHT22;3210;48.708;9.030;2022-10-17T02:59:54;10.50;99.90
6355;DHT22;3210;48.708;9.030;2022-10-17T03:02:21;10.60;99.90
6355;DHT22;3210;48.708;9.030;2022-10-17T03:04:49;10.50;99.90
6355;DHT22;3210;48.708;9.030;2022-10-17T03:07:16;10.40;99.90
6355;DHT22;3210;48.708;9.030;2022-10-17T03:09:43;10.40;99.90
6355;DHT22;3210;48.708;9.030;2022-10-17T03:12:10;10.40;99.90
6355;DHT22;3210;48.708;9.030;2022-10-17T03:14:37;10.40;99.90
6355;DHT22;3210;48.708;9.030;2022-10-17T03:17:04;10.40;99.90
6355;DHT22;3210;48.708;9.030;2022-10-17T03:19:31;10.40;99.90
6355;DHT22;3210;48.708;9.030;2022-10-17T03:21:59;10.40;99.90
6355;DHT22;3210;48.708;9.030;2022-10-17T03:24:26;10.40;99.90
6355;DHT22;3210;48.708;9.030;2022-10-17T03:26:53;10.40;99.90
6355;DHT22;3210;48.708;9.030;2022-10-17T03:29:19;10.40;99.90
6355;DHT22;3210;48.708;9.030;2022-10-17T03:31:46;10.40;99.90
6355;DHT22;3210;48.708;9.030;2022-10-17T03:34:13;10.40;99.90
6355;DHT22;3210;48.708;9.030;2022-10-17T03:36:41;10.40;99.90
6355;DHT22;3210;48.708;9.030;2022-10-17T03:39:09;10.40;99.90
6355;DHT22;3210;48.708;9.030;2022-10-17T21:41:16;12.90;99.90
6355;DHT22;3210;48.708;9.030;2022-10-17T21:43:50;12.80;99.90
6355;DHT22;3210;48.708;9.030;2022-10-17T21:46:44;12.80;99.90
6355;DHT22;3210;48.708;9.030;2022-10-17T21:52:55;12.80;99.90
6355;DHT22;3210;48.708;9.030;2022-10-17T21:55:36;12.80;99.90
6355;DHT22;3210;48.708;9.030;2022-10-17T21:59:00;12.70;99.90
6355;DHT22;3210;48.708;9.030;2022-10-17T22:01:57;12.70;99.90
6355;DHT22;3210;48.708;9.030;2022-10-17T22:04:36;12.50;99.90
6355;DHT22;3210;48.708;9.030;2022-10-17T22:07:32;12.50;99.90
6355;DHT22;3210;48.708;9.030;2022-10-17T22:10:21;12.50;99.90
6355;DHT22;3210;48.708;9.030;2022-10-17T22:13:07;12.40;99.90
6355;DHT22;3210;48.708;9.030;2022-10-17T22:15:52;12.40;99.90
6355;DHT22;3210;48.708;9.030;2022-10-17T22:18:32;12.40;99.90
6355;DHT22;3210;48.708;9.030;2022-10-17T22:21:14;12.40;99.90
6355;DHT22;3210;48.708;9.030;2022-10-17T22:23:56;12.40;99.90
6355;DHT22;3210;48.708;9.030;2022-10-17T22:26:35;12.40;99.90
6355;DHT22;3210;48.708;9.030;2022-10-17T22:29:11;12.30;99.90
6355;DHT22;3210;48.708;9.030;2022-10-17T22:31:50;12.40;99.90
6355;DHT22;3210;48.708;9.030;2022-10-17T22:34:25;12.40;99.90
6355;DHT22;3210;48.708;9.030;2022-10-17T22:37:10;12.40;99.90
6355;DHT22;3210;48.708;9.030;2022-10-17T22:39:48;12.30;99.90
6355;DHT22;3210;48.708;9.030;2022-10-17T22:42:30;12.30;99.90
6355;DHT22;3210;48.708;9.030;2022-10-17T22:45:09;12.30;99.90
6355;DHT22;3210;48.708;9.030;2022-10-17T22:47:49;12.30;99.90
6355;DHT22;3210;48.708;9.030;2022-10-17T22:50:23;12.20;99.90
6355;DHT22;3210;48.708;9.030;2022-10-17T22:52:59;12.10;99.90
6355;DHT22;3210;48.708;9.030;2022-10-17T22:55:34;12.10;99.90
6355;DHT22;3210;48.708;9.030;2022-10-17T22:58:14;12.10;99.90
6355;DHT22;3210;48.708;9.030;2022-10-17T23:00:52;12.10;99.90
6355;DHT22;3210;48.708;9.030;2022-10-17T23:03:33;12.20;99.90
6355;DHT22;3210;48.708;9.030;2022-10-17T23:06:12;12.20;99.90
6355;DHT22;3210;48.708;9.030;2022-10-17T23:08:52;12.20;99.90
6355;DHT22;3210;48.708;9.030;2022-10-17T23:11:29;12.30;99.90
6355;DHT22;3210;48.708;9.030;2022-10-17T23:14:05;12.20;99.90
6355;DHT22;3210;48.708;9.030;2022-10-17T23:16:40;12.20;99.90
6355;DHT22;3210;48.708;9.030;2022-10-17T23:19:21;12.10;99.90
6355;DHT22;3210;48.708;9.030;2022-10-17T23:22:01;12.10;99.90
6355;DHT22;3210;48.708;9.030;2022-10-17T23:24:39;12.10;99.90
6355;DHT22;3210;48.708;9.030;2022-10-17T23:27:16;12.20;99.90
6355;DHT22;3210;48.708;9.030;2022-10-17T23:29:51;12.10;99.90
6355;DHT22;3210;48.708;9.030;2022-10-17T23:32:25;12.10;99.90
6355;DHT22;3210;48.708;9.030;2022-10-17T23:35:03;12.10;99.90
6355;DHT22;3210;48.708;9.030;2022-10-17T23:37:38;12.10;99.90
6355;DHT22;3210;48.708;9.030;2022-10-17T23:40:13;12.10;99.90
6355;DHT22;3210;48.708;9.030;2022-10-17T23:42:49;12.10;99.90
6355;DHT22;3210;48.708;9.030;2022-10-17T23:45:24;12.00;99.90
6355;DHT22;3210;48.708;9.030;2022-10-17T23:48:00;12.00;99.90
6355;DHT22;3210;48.708;9.030;2022-10-17T23:50:39;12.00;99.90
6355;DHT22;3210;48.708;9.030;2022-10-17T23:53:12;12.00;99.90
6355;DHT22;3210;48.708;9.030;2022-10-17T23:55:46;11.90;99.90
6355;DHT22;3210;48.708;9.030;2022-10-17T23:58:21;11.90;99.90
